createdAt,value
2023-02-09T00:00:09.535Z,6.63
2023-02-09T00:02:38.159Z,6.57
2023-02-09T00:05:04.985Z,7.78
2023-02-09T00:07:31.624Z,7.97
2023-02-09T00:09:58.182Z,7.00
2023-02-09T00:12:43.334Z,8.10
2023-02-09T00:15:10.191Z,7.63
2023-02-09T00:17:37.170Z,8.65
2023-02-09T00:20:04.909Z,7.53
2023-02-09T00:22:31.551Z,7.63
2023-02-09T00:24:58.114Z,7.28
2023-02-09T00:27:24.606Z,7.03
2023-02-09T00:29:51.316Z,8.02
2023-02-09T00:32:18.106Z,7.40
2023-02-09T00:34:44.659Z,7.10
2023-02-09T00:37:11.139Z,7.20
2023-02-09T00:39:37.626Z,8.32
2023-02-09T00:42:07.055Z,8.40
2023-02-09T00:44:40.423Z,8.02
2023-02-09T00:47:07.994Z,8.35
2023-02-09T00:49:34.621Z,7.45
2023-02-09T00:52:01.153Z,7.93
2023-02-09T00:54:27.696Z,7.32
2023-02-09T00:56:54.168Z,7.30
2023-02-09T00:59:20.641Z,7.28
2023-02-09T01:01:47.132Z,8.15
2023-02-09T01:04:13.730Z,8.65
2023-02-09T01:06:40.407Z,8.90
2023-02-09T01:09:06.928Z,7.40
2023-02-09T01:11:33.384Z,8.30
2023-02-09T01:14:00.836Z,7.55
2023-02-09T01:16:31.765Z,8.45
2023-02-09T01:21:25.564Z,7.97
2023-02-09T01:23:52.143Z,7.35
2023-02-09T01:26:18.778Z,7.97
2023-02-09T01:28:49.562Z,8.70
2023-02-09T01:31:36.190Z,8.32
2023-02-09T01:34:04.219Z,8.50
2023-02-09T01:36:32.037Z,9.30
2023-02-09T01:38:59.984Z,8.07
2023-02-09T01:41:27.847Z,9.32
2023-02-09T01:43:56.303Z,8.57
2023-02-09T01:46:25.160Z,9.50
2023-02-09T01:48:55.750Z,9.38
2023-02-09T01:51:23.216Z,7.32
2023-02-09T01:53:50.351Z,8.02
2023-02-09T01:56:20.257Z,9.48
2023-02-09T01:58:47.536Z,8.80
2023-02-09T02:01:14.655Z,8.70
2023-02-09T02:03:41.364Z,8.85
2023-02-09T02:06:13.373Z,8.10
2023-02-09T02:08:52.236Z,8.60
2023-02-09T02:11:19.104Z,8.38
2023-02-09T02:13:45.893Z,8.90
2023-02-09T02:16:30.621Z,8.75
2023-02-09T02:19:25.027Z,8.57
2023-02-09T02:22:15.196Z,8.43
2023-02-09T02:24:50.394Z,8.60
2023-02-09T02:27:41.663Z,8.57
2023-02-09T02:30:46.250Z,9.63
2023-02-09T02:33:12.970Z,8.50
2023-02-09T02:35:57.732Z,7.25
2023-02-09T02:38:37.385Z,8.73
2023-02-09T02:41:15.306Z,8.90
2023-02-09T02:44:00.575Z,8.43
2023-02-09T02:46:35.789Z,9.73
2023-02-09T02:49:07.334Z,9.82
2023-02-09T02:51:37.337Z,9.15
2023-02-09T02:54:08.512Z,8.73
2023-02-09T02:56:41.610Z,9.85
2023-02-09T02:59:11.190Z,9.05
2023-02-09T03:01:44.891Z,8.55
2023-02-09T03:04:11.699Z,8.65
2023-02-09T03:06:38.419Z,8.43
2023-02-09T03:09:05.201Z,8.18
2023-02-09T03:11:35.512Z,9.20
2023-02-09T03:14:20.297Z,9.35
2023-02-09T03:20:14.780Z,9.18
2023-02-09T03:22:52.635Z,9.13
2023-02-09T03:25:23.288Z,8.68
2023-02-09T03:27:52.848Z,9.90
2023-02-09T03:30:20.372Z,8.18
2023-02-09T03:32:47.401Z,9.07
2023-02-09T03:35:19.423Z,9.60
2023-02-09T03:37:45.857Z,8.38
2023-02-09T03:40:12.509Z,10.05
2023-02-09T03:42:38.986Z,8.10
2023-02-09T03:45:08.082Z,8.85
2023-02-09T03:47:34.674Z,9.23
2023-02-09T03:50:01.169Z,10.20
2023-02-09T03:52:27.959Z,8.98
2023-02-09T03:54:54.510Z,9.30
2023-02-09T03:57:20.915Z,9.50
2023-02-09T03:59:47.388Z,9.60
2023-02-09T04:02:15.153Z,9.43
2023-02-09T04:04:41.756Z,9.52
2023-02-09T04:07:08.516Z,8.52
2023-02-09T04:09:36.595Z,9.65
2023-02-09T04:12:03.944Z,9.23
2023-02-09T04:14:30.457Z,9.50
2023-02-09T04:16:56.922Z,9.10
2023-02-09T04:19:23.481Z,8.93
2023-02-09T04:21:49.983Z,10.65
2023-02-09T04:24:16.885Z,9.15
2023-02-09T04:26:43.431Z,9.25
2023-02-09T04:29:10.143Z,9.85
2023-02-09T04:31:36.728Z,10.27
2023-02-09T04:34:03.330Z,8.93
2023-02-09T04:36:29.832Z,9.02
2023-02-09T04:38:56.391Z,9.88
2023-02-09T04:41:22.932Z,9.23
2023-02-09T04:43:49.483Z,10.10
2023-02-09T04:46:17.879Z,9.63
2023-02-09T04:48:45.068Z,9.43
2023-02-09T04:51:11.575Z,10.48
2023-02-09T04:53:38.641Z,9.40
2023-02-09T04:56:05.947Z,10.25
2023-02-09T04:58:51.108Z,10.52
2023-02-09T05:01:20.480Z,9.48
2023-02-09T05:03:47.270Z,11.25
2023-02-09T05:06:13.820Z,12.35
2023-02-09T05:08:40.330Z,9.20
2023-02-09T05:11:06.820Z,10.00
2023-02-09T05:13:33.317Z,10.10
2023-02-09T05:15:59.832Z,10.18
2023-02-09T05:18:26.340Z,11.07
2023-02-09T05:20:52.943Z,10.82
2023-02-09T05:23:20.151Z,9.73
2023-02-09T05:25:47.896Z,10.27
2023-02-09T05:28:14.658Z,10.88
2023-02-09T05:30:41.320Z,10.20
2023-02-09T05:33:08.028Z,10.00
2023-02-09T05:35:35.014Z,10.50
2023-02-09T05:38:01.578Z,10.65
2023-02-09T05:40:28.185Z,9.77
2023-02-09T05:42:55.086Z,13.43
2023-02-09T05:45:23.318Z,10.73
2023-02-09T05:47:49.797Z,12.13
2023-02-09T05:50:16.751Z,10.95
2023-02-09T05:52:43.293Z,10.13
2023-02-09T05:55:09.813Z,11.20
2023-02-09T05:57:36.425Z,10.40
2023-02-09T06:00:04.874Z,9.95
2023-02-09T06:02:31.425Z,9.93
2023-02-09T06:04:58.046Z,11.60
2023-02-09T06:07:24.559Z,12.10
2023-02-09T06:09:51.039Z,10.15
2023-02-09T06:12:17.544Z,10.35
2023-02-09T06:14:44.119Z,11.93
2023-02-09T06:17:10.708Z,11.93
2023-02-09T06:19:37.192Z,11.45
2023-02-09T06:22:03.721Z,12.10
2023-02-09T06:24:30.203Z,11.48
2023-02-09T06:26:56.768Z,11.32
2023-02-09T06:29:23.521Z,11.45
2023-02-09T06:31:50.240Z,11.52
2023-02-09T06:34:16.872Z,11.60
2023-02-09T06:36:43.340Z,12.07
2023-02-09T06:39:10.618Z,11.23
2023-02-09T06:41:37.284Z,12.68
2023-02-09T06:44:04.027Z,11.55
2023-02-09T06:46:30.638Z,12.48
2023-02-09T06:48:58.646Z,10.60
2023-02-09T06:51:26.016Z,12.20
2023-02-09T06:53:52.744Z,12.45
2023-02-09T06:56:20.314Z,12.07
2023-02-09T06:58:46.805Z,11.38
2023-02-09T07:01:17.152Z,11.48
2023-02-09T07:03:44.523Z,11.10
2023-02-09T07:06:17.643Z,11.23
2023-02-09T07:08:44.986Z,11.18
2023-02-09T07:11:17.136Z,11.80
2023-02-09T07:13:43.923Z,12.43
2023-02-09T07:16:11.618Z,11.32
2023-02-09T07:18:38.645Z,11.05
2023-02-09T07:21:10.799Z,12.52
2023-02-09T07:23:37.838Z,12.38
2023-02-09T07:26:07.642Z,11.00
2023-02-09T07:28:35.420Z,11.35
2023-02-09T07:31:04.986Z,11.00
2023-02-09T07:33:31.845Z,12.23
2023-02-09T07:35:58.669Z,11.85
2023-02-09T07:38:25.447Z,11.82
2023-02-09T07:40:52.043Z,11.80
2023-02-09T07:43:18.586Z,12.27
2023-02-09T07:45:45.487Z,10.82
2023-02-09T07:48:12.159Z,11.38
2023-02-09T07:50:38.816Z,12.77
2023-02-09T07:53:05.317Z,12.10
2023-02-09T07:55:31.865Z,11.15
2023-02-09T07:57:58.460Z,12.65
2023-02-09T08:00:25.573Z,11.43
2023-02-09T08:02:52.191Z,11.52
2023-02-09T08:05:28.539Z,12.15
2023-02-09T08:07:56.033Z,11.20
2023-02-09T08:10:23.056Z,11.82
2023-02-09T08:12:59.785Z,10.88
2023-02-09T08:15:38.464Z,11.00
2023-02-09T08:18:12.847Z,11.13
2023-02-09T08:20:39.965Z,11.80
2023-02-09T08:23:10.702Z,12.15
2023-02-09T08:25:37.506Z,12.60
2023-02-09T08:28:04.832Z,11.27
2023-02-09T08:30:31.769Z,11.45
2023-02-09T08:32:58.363Z,10.68
2023-02-09T08:35:24.953Z,11.45
2023-02-09T08:37:51.520Z,11.55
2023-02-09T08:40:18.222Z,11.73
2023-02-09T08:42:44.808Z,12.05
2023-02-09T08:45:11.488Z,11.13
2023-02-09T08:47:38.873Z,12.70
2023-02-09T08:50:05.999Z,13.52
2023-02-09T08:52:32.568Z,11.98
2023-02-09T08:54:59.111Z,11.35
2023-02-09T08:57:38.122Z,12.02
2023-02-09T09:00:10.210Z,11.63
2023-02-09T09:02:36.790Z,12.25
2023-02-09T09:05:03.390Z,12.55
2023-02-09T09:07:29.898Z,11.40
2023-02-09T09:09:56.420Z,12.75
2023-02-09T09:12:22.898Z,11.75
2023-02-09T09:14:49.440Z,11.55
2023-02-09T09:17:16.950Z,11.60
2023-02-09T09:19:43.687Z,10.43
2023-02-09T09:22:10.257Z,13.20
2023-02-09T09:24:41.029Z,10.85
2023-02-09T09:27:08.853Z,12.50
2023-02-09T09:29:36.055Z,11.43
2023-02-09T09:32:03.030Z,11.43
2023-02-09T09:34:29.783Z,12.57
2023-02-09T09:36:56.322Z,11.95
2023-02-09T09:39:22.872Z,11.80
2023-02-09T09:41:53.085Z,12.95
2023-02-09T09:44:45.616Z,11.45
2023-02-09T09:47:18.583Z,10.95
2023-02-09T09:49:45.338Z,10.25
2023-02-09T09:52:31.043Z,11.95
2023-02-09T09:54:57.996Z,11.43
2023-02-09T09:57:27.584Z,12.43
2023-02-09T09:59:54.880Z,12.32
2023-02-09T10:02:34.544Z,12.48
2023-02-09T10:05:12.592Z,11.93
2023-02-09T10:07:40.554Z,11.05
2023-02-09T10:10:14.689Z,10.80
2023-02-09T10:12:48.516Z,10.85
2023-02-09T10:15:28.765Z,12.18
2023-02-09T10:17:57.049Z,10.05
2023-02-09T10:20:45.314Z,11.82
2023-02-09T10:23:34.821Z,9.90
2023-02-09T10:26:03.178Z,10.95
2023-02-09T10:28:33.133Z,9.82
2023-02-09T10:31:02.461Z,9.67
2023-02-09T10:33:37.257Z,9.85
2023-02-09T10:36:06.774Z,11.98
2023-02-09T10:38:33.729Z,11.13
2023-02-09T10:41:01.220Z,11.75
2023-02-09T10:43:30.545Z,10.60
2023-02-09T10:46:02.968Z,10.70
2023-02-09T10:48:40.858Z,10.80
2023-02-09T10:51:15.102Z,8.77
2023-02-09T10:53:57.155Z,9.05
2023-02-09T10:56:26.803Z,9.93
2023-02-09T10:59:01.439Z,8.20
2023-02-09T11:01:32.223Z,8.95
2023-02-09T11:04:06.063Z,7.90
2023-02-09T11:07:00.133Z,9.38
2023-02-09T11:09:35.553Z,8.73
2023-02-09T11:12:02.631Z,8.30
2023-02-09T11:14:29.206Z,8.18
2023-02-09T11:17:21.192Z,8.73
2023-02-09T11:19:47.739Z,8.38
2023-02-09T11:22:42.945Z,8.15
2023-02-09T11:25:24.880Z,8.30
2023-02-09T11:28:09.736Z,7.65
2023-02-09T11:30:55.287Z,8.30
2023-02-09T11:33:39.716Z,8.15
2023-02-09T11:36:21.467Z,7.05
2023-02-09T11:39:13.793Z,7.10
2023-02-09T11:42:05.497Z,7.47
2023-02-09T11:44:53.947Z,8.98
2023-02-09T11:47:36.421Z,7.57
2023-02-09T11:50:06.011Z,7.75
2023-02-09T11:52:44.806Z,8.20
2023-02-09T11:55:34.275Z,7.85
2023-02-09T11:58:15.316Z,6.82
2023-02-09T12:01:06.860Z,7.80
2023-02-09T12:04:05.879Z,7.57
2023-02-09T12:06:38.128Z,7.53
2023-02-09T12:09:20.278Z,7.10
2023-02-09T12:12:01.150Z,8.15
2023-02-09T12:14:44.115Z,6.97
2023-02-09T12:17:25.440Z,7.97
2023-02-09T12:19:58.879Z,8.15
2023-02-09T12:22:34.672Z,8.05
2023-02-09T12:25:22.270Z,7.07
2023-02-09T12:28:09.832Z,6.95
2023-02-09T12:30:42.358Z,7.25
2023-02-09T12:33:14.976Z,7.03
2023-02-09T12:35:42.011Z,7.18
2023-02-09T12:38:18.114Z,7.65
2023-02-09T12:41:01.485Z,8.55
2023-02-09T12:43:30.099Z,8.07
2023-02-09T12:46:33.264Z,7.43
2023-02-09T12:49:11.722Z,8.00
2023-02-09T12:51:47.575Z,8.25
2023-02-09T12:54:36.485Z,8.20
2023-02-09T12:57:23.863Z,8.77
2023-02-09T12:59:50.685Z,8.48
2023-02-09T13:02:26.500Z,9.63
2023-02-09T13:05:12.197Z,8.65
2023-02-09T13:08:15.971Z,9.30
2023-02-09T13:11:00.830Z,9.23
2023-02-09T13:13:46.335Z,9.30
2023-02-09T13:16:25.312Z,9.30
2023-02-09T13:19:45.850Z,9.30
2023-02-09T13:22:30.646Z,9.73
2023-02-09T13:25:16.521Z,9.60
2023-02-09T13:27:46.124Z,9.73
2023-02-09T13:30:34.429Z,9.55
2023-02-09T13:33:25.504Z,9.07
2023-02-09T13:38:28.366Z,8.32
2023-02-09T13:40:55.578Z,8.15
2023-02-09T13:43:33.682Z,9.57
2023-02-09T13:46:01.949Z,9.35
2023-02-09T13:48:38.888Z,8.90
2023-02-09T13:51:18.624Z,8.93
2023-02-09T13:53:59.822Z,9.35
2023-02-09T13:56:27.029Z,8.40
2023-02-09T13:58:54.064Z,9.73
2023-02-09T14:01:29.015Z,10.15
2023-02-09T14:04:15.130Z,9.65
2023-02-09T14:07:03.309Z,9.57
2023-02-09T14:09:35.723Z,8.63
2023-02-09T14:12:13.220Z,9.55
2023-02-09T14:15:01.551Z,8.95
2023-02-09T14:17:34.879Z,8.32
2023-02-09T14:20:01.761Z,8.85
2023-02-09T14:22:35.549Z,8.65
2023-02-09T14:25:14.150Z,8.20
2023-02-09T14:27:41.503Z,9.10
2023-02-09T14:30:24.131Z,9.20
2023-02-09T14:32:55.048Z,8.68
2023-02-09T14:35:29.627Z,10.07
2023-02-09T14:37:58.817Z,8.75
2023-02-09T14:40:28.641Z,8.63
2023-02-09T14:42:56.602Z,9.75
2023-02-09T14:45:26.075Z,9.68
2023-02-09T14:47:52.743Z,9.70
2023-02-09T14:50:22.018Z,9.82
2023-02-09T14:52:52.123Z,8.57
2023-02-09T14:55:30.133Z,8.57
2023-02-09T14:57:56.645Z,8.38
2023-02-09T15:00:26.052Z,8.45
2023-02-09T15:02:53.270Z,9.15
2023-02-09T15:05:20.990Z,8.95
2023-02-09T15:07:51.321Z,9.65
2023-02-09T15:10:27.621Z,9.23
2023-02-09T15:12:55.040Z,10.45
2023-02-09T15:15:23.287Z,9.27
2023-02-09T15:17:50.439Z,9.77
2023-02-09T15:20:20.404Z,10.10
2023-02-09T15:22:47.681Z,9.30
2023-02-09T15:25:14.831Z,9.35
2023-02-09T15:27:51.900Z,9.10
2023-02-09T15:30:40.466Z,9.13
2023-02-09T15:33:12.310Z,9.18
2023-02-09T15:35:39.732Z,9.52
2023-02-09T15:38:06.391Z,9.77
2023-02-09T15:41:06.915Z,10.57
2023-02-09T15:43:52.153Z,9.48
2023-02-09T15:46:37.672Z,11.02
2023-02-09T15:49:05.741Z,10.18
2023-02-09T15:51:34.249Z,10.73
2023-02-09T15:54:05.323Z,12.00
2023-02-09T15:56:35.586Z,10.23
2023-02-09T15:59:03.917Z,10.02
2023-02-09T16:01:34.564Z,9.55
2023-02-09T16:04:13.362Z,9.48
2023-02-09T16:06:49.546Z,11.05
2023-02-09T16:09:21.981Z,10.13
2023-02-09T16:11:48.705Z,10.60
2023-02-09T16:14:20.730Z,10.18
2023-02-09T16:16:48.110Z,11.63
2023-02-09T16:19:14.943Z,9.80
2023-02-09T16:21:43.028Z,10.65
2023-02-09T16:24:33.815Z,10.80
2023-02-09T16:27:02.067Z,11.52
2023-02-09T16:29:28.823Z,11.70
2023-02-09T16:31:55.450Z,10.02
2023-02-09T16:34:22.051Z,11.10
2023-02-09T16:36:50.563Z,11.23
2023-02-09T16:39:18.999Z,12.55
2023-02-09T16:41:47.106Z,11.55
2023-02-09T16:44:16.931Z,11.43
2023-02-09T16:46:43.673Z,12.10
2023-02-09T16:49:21.551Z,12.05
2023-02-09T16:51:48.025Z,11.38
2023-02-09T16:54:15.853Z,12.35
2023-02-09T16:56:53.494Z,11.25
2023-02-09T16:59:20.352Z,11.73
2023-02-09T17:01:48.452Z,11.13
2023-02-09T17:04:15.209Z,10.43
2023-02-09T17:06:41.781Z,11.15
2023-02-09T17:09:15.843Z,10.93
2023-02-09T17:11:42.594Z,12.00
2023-02-09T17:14:09.290Z,12.27
2023-02-09T17:16:38.258Z,11.18
2023-02-09T17:19:10.006Z,11.50
2023-02-09T17:21:39.518Z,10.90
2023-02-09T17:24:12.026Z,11.05
2023-02-09T17:26:40.145Z,11.93
2023-02-09T17:29:06.993Z,11.20
2023-02-09T17:31:50.842Z,12.70
2023-02-09T17:34:20.698Z,12.32
2023-02-09T17:36:47.368Z,11.48
2023-02-09T17:39:14.191Z,12.38
2023-02-09T17:41:45.405Z,12.18
2023-02-09T17:44:39.098Z,12.02
2023-02-09T17:47:06.260Z,11.32
2023-02-09T17:49:33.274Z,11.50
2023-02-09T17:51:59.857Z,12.90
2023-02-09T17:54:27.816Z,11.73
2023-02-09T17:56:54.337Z,12.13
2023-02-09T17:59:21.342Z,12.30
2023-02-09T18:01:51.873Z,13.32
2023-02-09T18:04:26.730Z,13.25
2023-02-09T18:06:53.338Z,11.65
2023-02-09T18:09:20.154Z,12.48
2023-02-09T18:11:52.577Z,11.73
2023-02-09T18:14:20.522Z,12.20
2023-02-09T18:16:47.893Z,12.30
2023-02-09T18:19:15.878Z,11.75
2023-02-09T18:21:48.824Z,12.15
2023-02-09T18:24:15.813Z,12.52
2023-02-09T18:26:42.656Z,13.18
2023-02-09T18:29:09.645Z,14.02
2023-02-09T18:31:37.664Z,13.30
2023-02-09T18:34:04.414Z,11.98
2023-02-09T18:36:32.689Z,14.13
2023-02-09T18:38:59.667Z,12.60
2023-02-09T18:41:26.824Z,12.77
2023-02-09T18:43:54.573Z,14.52
2023-02-09T18:46:24.353Z,12.60
2023-02-09T18:48:51.614Z,14.30
2023-02-09T18:51:18.171Z,13.27
2023-02-09T18:53:44.640Z,13.68
2023-02-09T18:56:17.310Z,13.10
2023-02-09T18:58:44.102Z,13.32
2023-02-09T19:01:12.024Z,13.63
2023-02-09T19:03:38.679Z,12.02
2023-02-09T19:06:05.920Z,13.85
2023-02-09T19:08:32.404Z,12.88
2023-02-09T19:10:58.889Z,13.48
2023-02-09T19:13:25.432Z,13.85
2023-02-09T19:15:51.993Z,12.85
2023-02-09T19:18:18.541Z,13.27
2023-02-09T19:20:45.006Z,14.35
2023-02-09T19:23:11.533Z,15.55
2023-02-09T19:25:38.071Z,14.73
2023-02-09T19:28:04.764Z,13.52
2023-02-09T19:30:31.350Z,16.67
2023-02-09T19:32:58.635Z,15.85
2023-02-09T19:35:25.715Z,14.82
2023-02-09T19:37:53.452Z,13.25
2023-02-09T19:40:28.454Z,15.88
2023-02-09T19:42:56.474Z,16.05
2023-02-09T19:45:23.443Z,15.75
2023-02-09T19:47:49.981Z,16.98
2023-02-09T19:50:16.976Z,16.52
2023-02-09T19:52:46.855Z,18.08
2023-02-09T19:55:14.572Z,16.83
2023-02-09T19:57:42.509Z,17.23
2023-02-09T20:00:11.505Z,18.10
2023-02-09T20:02:39.341Z,18.17
2023-02-09T20:05:06.313Z,18.08
2023-02-09T20:07:32.871Z,18.17
2023-02-09T20:10:01.961Z,16.98
2023-02-09T20:12:28.546Z,19.23
2023-02-09T20:14:55.141Z,19.63
2023-02-09T20:17:21.804Z,20.90
2023-02-09T20:19:48.376Z,18.85
2023-02-09T20:22:15.328Z,20.60
2023-02-09T20:24:42.969Z,19.25
2023-02-09T20:27:09.830Z,19.92
2023-02-09T20:29:36.344Z,20.98
2023-02-09T20:32:03.398Z,21.40
2023-02-09T20:34:30.125Z,20.35
2023-02-09T20:36:57.511Z,22.17
2023-02-09T20:39:24.060Z,20.10
2023-02-09T20:42:14.522Z,20.63
2023-02-09T20:45:00.148Z,22.15
2023-02-09T20:47:26.688Z,22.15
2023-02-09T20:49:56.853Z,21.65
2023-02-09T20:52:23.338Z,18.38
2023-02-09T20:54:51.715Z,20.52
2023-02-09T20:57:18.311Z,21.27
2023-02-09T20:59:44.942Z,21.85
2023-02-09T21:02:16.020Z,19.77
2023-02-09T21:04:42.944Z,21.73
2023-02-09T21:07:09.537Z,22.00
2023-02-09T21:09:35.997Z,22.65
2023-02-09T21:12:02.651Z,22.35
2023-02-09T21:14:41.143Z,22.30
2023-02-09T21:17:09.226Z,22.13
2023-02-09T21:19:35.879Z,26.10
2023-02-09T21:22:02.497Z,24.75
2023-02-09T21:24:29.059Z,22.95
2023-02-09T21:26:55.553Z,22.98
2023-02-09T21:29:22.171Z,24.67
2023-02-09T21:31:48.717Z,23.75
2023-02-09T21:34:16.603Z,25.58
2023-02-09T21:36:43.218Z,25.55
2023-02-09T21:39:09.741Z,25.17
2023-02-09T21:41:55.073Z,26.10
2023-02-09T21:44:21.729Z,26.20
2023-02-09T21:46:49.166Z,24.50
2023-02-09T21:49:15.859Z,24.45
2023-02-09T21:51:42.486Z,26.00
2023-02-09T21:54:13.703Z,25.02
2023-02-09T21:56:40.676Z,24.73
2023-02-09T21:59:07.431Z,26.30
2023-02-09T22:01:34.491Z,26.73
2023-02-09T22:04:01.532Z,26.05
2023-02-09T22:06:30.523Z,25.85
2023-02-09T22:08:57.345Z,26.95
2023-02-09T22:11:23.829Z,27.80
2023-02-09T22:13:50.365Z,25.42
2023-02-09T22:16:19.490Z,25.95
2023-02-09T22:18:46.074Z,25.42
2023-02-09T22:21:12.765Z,27.20
2023-02-09T22:23:39.280Z,26.65
2023-02-09T22:26:06.744Z,24.77
2023-02-09T22:28:36.309Z,28.50
2023-02-09T22:31:11.945Z,26.65
2023-02-09T22:33:39.115Z,25.20
2023-02-09T22:36:11.624Z,25.25
2023-02-09T22:38:38.244Z,26.25
2023-02-09T22:41:21.494Z,27.40
2023-02-09T22:43:49.046Z,26.67
2023-02-09T22:46:15.806Z,27.52
2023-02-09T22:48:42.821Z,27.23
2023-02-09T22:51:09.429Z,25.92
2023-02-09T22:53:35.953Z,26.58
2023-02-09T22:56:03.701Z,28.10
2023-02-09T22:58:30.429Z,26.77
2023-02-09T23:00:57.056Z,28.65
2023-02-09T23:03:23.642Z,27.92
2023-02-09T23:05:51.055Z,28.20
2023-02-09T23:08:17.598Z,27.10
2023-02-09T23:10:44.105Z,27.02
2023-02-09T23:13:10.600Z,28.55
2023-02-09T23:15:37.297Z,27.50
2023-02-09T23:18:03.997Z,25.17
2023-02-09T23:20:30.536Z,30.20
2023-02-09T23:23:01.324Z,28.48
2023-02-09T23:25:28.614Z,26.33
2023-02-09T23:27:55.168Z,26.83
2023-02-09T23:30:21.717Z,29.73
2023-02-09T23:32:49.377Z,28.45
2023-02-09T23:35:17.588Z,28.75
2023-02-09T23:37:44.119Z,29.63
2023-02-09T23:40:11.184Z,29.48
2023-02-09T23:42:37.737Z,27.83
2023-02-09T23:45:04.431Z,27.15
2023-02-09T23:47:30.910Z,28.45
2023-02-09T23:49:57.369Z,27.95
2023-02-09T23:52:23.889Z,28.00
2023-02-09T23:54:50.388Z,29.38
2023-02-09T23:57:18.002Z,26.80
2023-02-09T23:59:44.521Z,28.45
